sensor_id;sensor_type;location;lat;lon;timestamp;temperature;humidity
14485;DHT22;7328;50.812;4.422;2022-12-07T00:01:30;5.30;99.90
14485;DHT22;7328;50.812;4.422;2022-12-07T00:03:58;5.30;99.90
14485;DHT22;7328;50.812;4.422;2022-12-07T00:06:39;5.20;99.90
14485;DHT22;7328;50.812;4.422;2022-12-07T00:09:07;5.30;99.90
14485;DHT22;7328;50.812;4.422;2022-12-07T00:11:33;5.30;99.90
14485;DHT22;7328;50.812;4.422;2022-12-07T00:14:01;5.30;99.90
14485;DHT22;7328;50.812;4.422;2022-12-07T00:16:31;5.30;99.90
14485;DHT22;7328;50.812;4.422;2022-12-07T00:18:57;5.30;99.90
14485;DHT22;7328;50.812;4.422;2022-12-07T00:21:25;5.20;99.90
14485;DHT22;7328;50.812;4.422;2022-12-07T00:23:52;5.10;99.90
14485;DHT22;7328;50.812;4.422;2022-12-07T00:26:29;-5.40;99.90
14485;DHT22;7328;50.812;4.422;2022-12-07T00:28:59;-5.60;99.90
14485;DHT22;7328;50.812;4.422;2022-12-07T00:31:28;-5.50;99.90
14485;DHT22;7328;50.812;4.422;2022-12-07T00:33:55;-3.80;99.90
14485;DHT22;7328;50.812;4.422;2022-12-07T00:36:23;-5.90;99.90
14485;DHT22;7328;50.812;4.422;2022-12-07T00:38:49;-6.50;99.90
14485;DHT22;7328;50.812;4.422;2022-12-07T00:41:24;-4.60;99.90
14485;DHT22;7328;50.812;4.422;2022-12-07T00:43:50;-5.70;99.90
14485;DHT22;7328;50.812;4.422;2022-12-07T00:46:18;-5.40;99.90
14485;DHT22;7328;50.812;4.422;2022-12-07T00:48:44;-5.50;99.90
14485;DHT22;7328;50.812;4.422;2022-12-07T00:51:12;-5.10;99.90
14485;DHT22;7328;50.812;4.422;2022-12-07T00:53:38;-4.20;99.90
14485;DHT22;7328;50.812;4.422;2022-12-07T00:56:10;-4.00;99.90
14485;DHT22;7328;50.812;4.422;2022-12-07T00:58:36;-6.00;99.90
14485;DHT22;7328;50.812;4.422;2022-12-07T01:01:03;-6.00;99.90
14485;DHT22;7328;50.812;4.422;2022-12-07T01:03:29;-6.50;99.90
14485;DHT22;7328;50.812;4.422;2022-12-07T01:05:56;-4.30;99.90
14485;DHT22;7328;50.812;4.422;2022-12-07T01:08:26;-4.20;99.90
14485;DHT22;7328;50.812;4.422;2022-12-07T01:11:05;-5.60;99.90
14485;DHT22;7328;50.812;4.422;2022-12-07T01:13:32;-5.80;99.90
14485;DHT22;7328;50.812;4.422;2022-12-07T01:16:00;-4.00;99.90
14485;DHT22;7328;50.812;4.422;2022-12-07T01:18:31;-5.30;99.90
14485;DHT22;7328;50.812;4.422;2022-12-07T01:21:17;-5.30;99.90
14485;DHT22;7328;50.812;4.422;2022-12-07T01:23:43;-5.40;99.90
14485;DHT22;7328;50.812;4.422;2022-12-07T01:26:11;-5.30;99.90
14485;DHT22;7328;50.812;4.422;2022-12-07T01:28:37;-5.20;99.90
14485;DHT22;7328;50.812;4.422;2022-12-07T01:31:05;-5.30;99.90
14485;DHT22;7328;50.812;4.422;2022-12-07T01:33:35;-4.60;99.90
14485;DHT22;7328;50.812;4.422;2022-12-07T01:36:07;-4.30;99.90
14485;DHT22;7328;50.812;4.422;2022-12-07T01:38:33;-5.10;99.90
14485;DHT22;7328;50.812;4.422;2022-12-07T01:41:01;-5.20;99.90
14485;DHT22;7328;50.812;4.422;2022-12-07T01:43:29;-5.40;99.90
14485;DHT22;7328;50.812;4.422;2022-12-07T01:45:56;-5.10;99.90
14485;DHT22;7328;50.812;4.422;2022-12-07T01:48:33;-5.00;99.90
14485;DHT22;7328;50.812;4.422;2022-12-07T01:51:03;-5.40;99.90
14485;DHT22;7328;50.812;4.422;2022-12-07T01:53:30;-5.30;99.90
14485;DHT22;7328;50.812;4.422;2022-12-07T01:55:58;-5.50;99.90
14485;DHT22;7328;50.812;4.422;2022-12-07T01:58:24;-5.40;99.90
14485;DHT22;7328;50.812;4.422;2022-12-07T02:00:50;-6.00;99.90
14485;DHT22;7328;50.812;4.422;2022-12-07T02:03:18;-6.20;99.90
14485;DHT22;7328;50.812;4.422;2022-12-07T02:05:45;-6.20;99.90
14485;DHT22;7328;50.812;4.422;2022-12-07T02:08:12;-5.90;99.90
14485;DHT22;7328;50.812;4.422;2022-12-07T02:10:39;-5.80;99.90
14485;DHT22;7328;50.812;4.422;2022-12-07T02:13:12;-5.80;99.90
14485;DHT22;7328;50.812;4.422;2022-12-07T02:21:58;-5.60;99.90
14485;DHT22;7328;50.812;4.422;2022-12-07T02:26:54;-5.80;99.90
14485;DHT22;7328;50.812;4.422;2022-12-07T02:35:55;-5.90;99.90
14485;DHT22;7328;50.812;4.422;2022-12-07T02:38:37;-5.50;99.90
14485;DHT22;7328;50.812;4.422;2022-12-07T02:41:11;-5.40;99.90
14485;DHT22;7328;50.812;4.422;2022-12-07T02:44:06;-4.80;99.90
14485;DHT22;7328;50.812;4.422;2022-12-07T02:46:37;-5.80;99.90
14485;DHT22;7328;50.812;4.422;2022-12-07T02:49:04;-5.00;99.90
14485;DHT22;7328;50.812;4.422;2022-12-07T02:51:31;-6.00;99.90
14485;DHT22;7328;50.812;4.422;2022-12-07T02:53:57;-6.20;99.90
14485;DHT22;7328;50.812;4.422;2022-12-07T02:56:45;-5.80;99.90
14485;DHT22;7328;50.812;4.422;2022-12-07T02:59:41;-5.60;99.90
14485;DHT22;7328;50.812;4.422;2022-12-07T03:02:35;-6.00;99.90
14485;DHT22;7328;50.812;4.422;2022-12-07T03:08:55;-5.50;99.90
14485;DHT22;7328;50.812;4.422;2022-12-07T03:11:16;-5.60;99.90
14485;DHT22;7328;50.812;4.422;2022-12-07T03:16:27;-6.70;99.90
14485;DHT22;7328;50.812;4.422;2022-12-07T03:18:58;-7.10;99.90
14485;DHT22;7328;50.812;4.422;2022-12-07T03:21:32;-6.40;99.90
14485;DHT22;7328;50.812;4.422;2022-12-07T03:24:03;-7.10;99.90
14485;DHT22;7328;50.812;4.422;2022-12-07T03:26:40;-5.30;99.90
14485;DHT22;7328;50.812;4.422;2022-12-07T03:29:19;-6.20;99.90
14485;DHT22;7328;50.812;4.422;2022-12-07T03:31:55;-6.30;99.90
14485;DHT22;7328;50.812;4.422;2022-12-07T03:34:31;-6.20;99.90
14485;DHT22;7328;50.812;4.422;2022-12-07T03:37:08;-6.20;99.90
14485;DHT22;7328;50.812;4.422;2022-12-07T03:40:08;-6.20;99.90
14485;DHT22;7328;50.812;4.422;2022-12-07T03:42:36;-5.70;99.90
14485;DHT22;7328;50.812;4.422;2022-12-07T03:45:03;-5.90;99.90
14485;DHT22;7328;50.812;4.422;2022-12-07T03:48:00;-6.00;99.90
14485;DHT22;7328;50.812;4.422;2022-12-07T03:50:31;-6.00;99.90
14485;DHT22;7328;50.812;4.422;2022-12-07T03:53:11;-6.30;99.90
14485;DHT22;7328;50.812;4.422;2022-12-07T03:55:42;-6.10;99.90
14485;DHT22;7328;50.812;4.422;2022-12-07T03:58:14;-4.90;99.90
14485;DHT22;7328;50.812;4.422;2022-12-07T04:00:42;-5.80;99.90
14485;DHT22;7328;50.812;4.422;2022-12-07T04:03:08;-6.00;99.90
14485;DHT22;7328;50.812;4.422;2022-12-07T04:05:34;-5.70;99.90
14485;DHT22;7328;50.812;4.422;2022-12-07T04:08:00;-5.50;99.90
14485;DHT22;7328;50.812;4.422;2022-12-07T04:10:25;-5.60;99.90
14485;DHT22;7328;50.812;4.422;2022-12-07T04:12:51;-5.10;99.90
14485;DHT22;7328;50.812;4.422;2022-12-07T04:15:17;-5.50;99.90
14485;DHT22;7328;50.812;4.422;2022-12-07T04:17:43;-6.60;99.90
14485;DHT22;7328;50.812;4.422;2022-12-07T04:20:09;-6.30;99.90
14485;DHT22;7328;50.812;4.422;2022-12-07T04:22:35;-6.30;99.90
14485;DHT22;7328;50.812;4.422;2022-12-07T04:25:01;-6.30;99.90
14485;DHT22;7328;50.812;4.422;2022-12-07T04:27:27;-5.60;99.90
14485;DHT22;7328;50.812;4.422;2022-12-07T04:29:52;-5.90;99.90
14485;DHT22;7328;50.812;4.422;2022-12-07T04:32:18;-4.80;99.90
14485;DHT22;7328;50.812;4.422;2022-12-07T04:34:44;-5.90;99.90
14485;DHT22;7328;50.812;4.422;2022-12-07T04:37:09;-5.70;99.90
14485;DHT22;7328;50.812;4.422;2022-12-07T04:39:36;-5.30;99.90
14485;DHT22;7328;50.812;4.422;2022-12-07T04:42:02;-4.80;99.90
14485;DHT22;7328;50.812;4.422;2022-12-07T04:44:29;-5.00;99.90
14485;DHT22;7328;50.812;4.422;2022-12-07T04:46:55;-5.10;99.90
14485;DHT22;7328;50.812;4.422;2022-12-07T04:49:24;-4.70;99.90
14485;DHT22;7328;50.812;4.422;2022-12-07T04:51:50;-3.40;99.90
14485;DHT22;7328;50.812;4.422;2022-12-07T04:54:16;-4.40;99.90
14485;DHT22;7328;50.812;4.422;2022-12-07T04:56:42;-5.30;99.90
14485;DHT22;7328;50.812;4.422;2022-12-07T04:59:10;-5.20;99.90
14485;DHT22;7328;50.812;4.422;2022-12-07T05:01:36;-5.70;99.90
14485;DHT22;7328;50.812;4.422;2022-12-07T05:04:02;-5.50;99.90
14485;DHT22;7328;50.812;4.422;2022-12-07T05:06:28;-5.80;99.90
14485;DHT22;7328;50.812;4.422;2022-12-07T05:08:54;-5.50;99.90
14485;DHT22;7328;50.812;4.422;2022-12-07T05:11:20;-5.60;99.90
14485;DHT22;7328;50.812;4.422;2022-12-07T05:14:19;-5.10;99.90
14485;DHT22;7328;50.812;4.422;2022-12-07T05:16:47;-5.10;99.90
14485;DHT22;7328;50.812;4.422;2022-12-07T05:19:13;-4.30;99.90
14485;DHT22;7328;50.812;4.422;2022-12-07T05:21:39;-5.10;99.90
14485;DHT22;7328;50.812;4.422;2022-12-07T05:24:05;-5.50;99.90
14485;DHT22;7328;50.812;4.422;2022-12-07T05:26:32;-5.10;99.90
14485;DHT22;7328;50.812;4.422;2022-12-07T05:28:58;-5.30;99.90
14485;DHT22;7328;50.812;4.422;2022-12-07T05:31:25;-5.20;99.90
14485;DHT22;7328;50.812;4.422;2022-12-07T05:33:52;-4.40;99.90
14485;DHT22;7328;50.812;4.422;2022-12-07T05:36:18;-5.10;99.90
14485;DHT22;7328;50.812;4.422;2022-12-07T05:38:44;-4.10;99.90
14485;DHT22;7328;50.812;4.422;2022-12-07T05:41:13;-4.50;99.90
14485;DHT22;7328;50.812;4.422;2022-12-07T05:43:59;-4.70;99.90
14485;DHT22;7328;50.812;4.422;2022-12-07T05:46:25;-5.50;99.90
14485;DHT22;7328;50.812;4.422;2022-12-07T05:48:51;-5.70;99.90
14485;DHT22;7328;50.812;4.422;2022-12-07T05:51:17;-5.60;99.90
14485;DHT22;7328;50.812;4.422;2022-12-07T05:53:44;-4.90;99.90
14485;DHT22;7328;50.812;4.422;2022-12-07T05:56:10;-6.30;99.90
14485;DHT22;7328;50.812;4.422;2022-12-07T05:58:35;-5.30;99.90
14485;DHT22;7328;50.812;4.422;2022-12-07T06:01:19;-5.70;99.90
14485;DHT22;7328;50.812;4.422;2022-12-07T06:03:45;-5.80;99.90
14485;DHT22;7328;50.812;4.422;2022-12-07T06:06:11;-5.70;99.90
14485;DHT22;7328;50.812;4.422;2022-12-07T06:08:37;-5.20;99.90
14485;DHT22;7328;50.812;4.422;2022-12-07T06:11:02;-5.40;99.90
14485;DHT22;7328;50.812;4.422;2022-12-07T06:13:46;-5.30;99.90
14485;DHT22;7328;50.812;4.422;2022-12-07T06:16:12;-5.40;99.90
14485;DHT22;7328;50.812;4.422;2022-12-07T06:18:38;-5.30;99.90
14485;DHT22;7328;50.812;4.422;2022-12-07T06:21:04;-5.10;99.90
14485;DHT22;7328;50.812;4.422;2022-12-07T06:23:29;-5.00;99.90
14485;DHT22;7328;50.812;4.422;2022-12-07T06:25:55;-5.10;99.90
14485;DHT22;7328;50.812;4.422;2022-12-07T06:28:21;-4.90;99.90
14485;DHT22;7328;50.812;4.422;2022-12-07T06:30:47;-5.20;99.90
14485;DHT22;7328;50.812;4.422;2022-12-07T06:33:12;-5.40;99.90
14485;DHT22;7328;50.812;4.422;2022-12-07T06:35:38;-5.50;99.90
14485;DHT22;7328;50.812;4.422;2022-12-07T06:38:04;-5.20;99.90
14485;DHT22;7328;50.812;4.422;2022-12-07T06:40:29;-4.80;99.90
14485;DHT22;7328;50.812;4.422;2022-12-07T06:42:55;-4.90;99.90
14485;DHT22;7328;50.812;4.422;2022-12-07T06:45:21;-5.00;99.90
14485;DHT22;7328;50.812;4.422;2022-12-07T06:47:46;-4.80;99.90
14485;DHT22;7328;50.812;4.422;2022-12-07T06:50:12;-5.20;99.90
14485;DHT22;7328;50.812;4.422;2022-12-07T06:52:38;-3.60;99.90
14485;DHT22;7328;50.812;4.422;2022-12-07T06:55:03;-5.00;99.90
14485;DHT22;7328;50.812;4.422;2022-12-07T06:57:29;-5.20;99.90
14485;DHT22;7328;50.812;4.422;2022-12-07T06:59:55;-4.60;99.90
14485;DHT22;7328;50.812;4.422;2022-12-07T07:02:21;-4.90;99.90
14485;DHT22;7328;50.812;4.422;2022-12-07T07:04:46;-5.10;99.90
14485;DHT22;7328;50.812;4.422;2022-12-07T07:07:12;-4.90;99.90
14485;DHT22;7328;50.812;4.422;2022-12-07T07:09:38;-5.50;99.90
14485;DHT22;7328;50.812;4.422;2022-12-07T07:12:04;-5.50;99.90
14485;DHT22;7328;50.812;4.422;2022-12-07T07:14:29;-5.50;99.90
14485;DHT22;7328;50.812;4.422;2022-12-07T07:16:55;-5.70;99.90
14485;DHT22;7328;50.812;4.422;2022-12-07T07:19:21;-4.40;99.90
14485;DHT22;7328;50.812;4.422;2022-12-07T07:21:47;-5.50;99.90
14485;DHT22;7328;50.812;4.422;2022-12-07T07:24:12;-3.60;99.90
14485;DHT22;7328;50.812;4.422;2022-12-07T07:26:38;-4.60;99.90
14485;DHT22;7328;50.812;4.422;2022-12-07T07:29:04;-5.80;99.90
14485;DHT22;7328;50.812;4.422;2022-12-07T07:31:30;-6.10;99.90
14485;DHT22;7328;50.812;4.422;2022-12-07T07:33:56;-6.20;99.90
14485;DHT22;7328;50.812;4.422;2022-12-07T07:36:21;-6.10;99.90
14485;DHT22;7328;50.812;4.422;2022-12-07T07:38:47;-6.00;99.90
14485;DHT22;7328;50.812;4.422;2022-12-07T07:41:13;-5.80;99.90
14485;DHT22;7328;50.812;4.422;2022-12-07T07:43:38;-5.60;99.90
14485;DHT22;7328;50.812;4.422;2022-12-07T07:46:04;-5.50;99.90
14485;DHT22;7328;50.812;4.422;2022-12-07T07:48:30;-5.60;99.90
14485;DHT22;7328;50.812;4.422;2022-12-07T07:50:56;-5.40;99.90
14485;DHT22;7328;50.812;4.422;2022-12-07T07:53:21;-5.60;99.90
14485;DHT22;7328;50.812;4.422;2022-12-07T07:55:52;-5.60;99.90
14485;DHT22;7328;50.812;4.422;2022-12-07T07:58:19;-5.20;99.90
14485;DHT22;7328;50.812;4.422;2022-12-07T08:00:45;-5.30;99.90
14485;DHT22;7328;50.812;4.422;2022-12-07T08:03:10;-5.70;99.90
14485;DHT22;7328;50.812;4.422;2022-12-07T08:05:37;-5.60;99.90
14485;DHT22;7328;50.812;4.422;2022-12-07T08:08:03;-5.40;99.90
14485;DHT22;7328;50.812;4.422;2022-12-07T08:10:29;-5.40;99.90
14485;DHT22;7328;50.812;4.422;2022-12-07T08:12:58;-5.40;99.90
14485;DHT22;7328;50.812;4.422;2022-12-07T08:15:37;-5.10;99.90
14485;DHT22;7328;50.812;4.422;2022-12-07T08:18:04;-5.20;99.90
14485;DHT22;7328;50.812;4.422;2022-12-07T08:20:30;-5.60;99.90
14485;DHT22;7328;50.812;4.422;2022-12-07T08:22:57;-4.70;99.90
14485;DHT22;7328;50.812;4.422;2022-12-07T08:25:22;-5.70;99.90
14485;DHT22;7328;50.812;4.422;2022-12-07T08:27:48;-6.20;99.90
14485;DHT22;7328;50.812;4.422;2022-12-07T08:30:15;-6.60;99.90
14485;DHT22;7328;50.812;4.422;2022-12-07T08:32:41;-6.50;99.90
14485;DHT22;7328;50.812;4.422;2022-12-07T08:35:07;-6.40;99.90
14485;DHT22;7328;50.812;4.422;2022-12-07T08:37:33;-6.00;99.90
14485;DHT22;7328;50.812;4.422;2022-12-07T08:39:59;-6.80;99.90
14485;DHT22;7328;50.812;4.422;2022-12-07T08:42:24;-7.20;99.90
14485;DHT22;7328;50.812;4.422;2022-12-07T08:44:56;-6.60;99.90
14485;DHT22;7328;50.812;4.422;2022-12-07T08:47:23;-6.40;99.90
14485;DHT22;7328;50.812;4.422;2022-12-07T08:49:50;-5.80;99.90
14485;DHT22;7328;50.812;4.422;2022-12-07T08:52:17;-5.70;99.90
14485;DHT22;7328;50.812;4.422;2022-12-07T08:54:43;-5.90;99.90
14485;DHT22;7328;50.812;4.422;2022-12-07T08:57:10;-5.60;99.90
14485;DHT22;7328;50.812;4.422;2022-12-07T08:59:37;-6.40;99.90
14485;DHT22;7328;50.812;4.422;2022-12-07T09:02:04;-6.00;99.90
14485;DHT22;7328;50.812;4.422;2022-12-07T09:04:30;-6.40;99.90
14485;DHT22;7328;50.812;4.422;2022-12-07T09:06:56;-6.80;99.90
14485;DHT22;7328;50.812;4.422;2022-12-07T09:09:23;-8.00;99.90
14485;DHT22;7328;50.812;4.422;2022-12-07T09:11:48;-8.10;99.90
14485;DHT22;7328;50.812;4.422;2022-12-07T09:14:14;-8.10;99.90
14485;DHT22;7328;50.812;4.422;2022-12-07T09:16:40;-8.10;99.90
14485;DHT22;7328;50.812;4.422;2022-12-07T09:19:07;-7.70;99.90
14485;DHT22;7328;50.812;4.422;2022-12-07T09:21:33;-8.50;99.90
14485;DHT22;7328;50.812;4.422;2022-12-07T09:23:59;-8.10;99.90
14485;DHT22;7328;50.812;4.422;2022-12-07T09:26:25;-8.20;99.90
14485;DHT22;7328;50.812;4.422;2022-12-07T09:28:50;-8.10;99.90
14485;DHT22;7328;50.812;4.422;2022-12-07T09:31:16;-10.90;99.90
14485;DHT22;7328;50.812;4.422;2022-12-07T09:33:42;-10.10;99.90
14485;DHT22;7328;50.812;4.422;2022-12-07T09:36:08;-9.50;99.90
14485;DHT22;7328;50.812;4.422;2022-12-07T09:38:35;-10.20;99.90
14485;DHT22;7328;50.812;4.422;2022-12-07T09:41:06;-11.10;99.90
14485;DHT22;7328;50.812;4.422;2022-12-07T09:43:34;-10.80;99.90
14485;DHT22;7328;50.812;4.422;2022-12-07T09:46:00;-10.60;99.90
14485;DHT22;7328;50.812;4.422;2022-12-07T09:48:34;-8.90;99.90
14485;DHT22;7328;50.812;4.422;2022-12-07T09:51:02;-9.70;99.90
14485;DHT22;7328;50.812;4.422;2022-12-07T09:53:38;-11.30;99.90
14485;DHT22;7328;50.812;4.422;2022-12-07T09:56:04;-10.80;99.90
14485;DHT22;7328;50.812;4.422;2022-12-07T09:58:33;-11.00;99.90
14485;DHT22;7328;50.812;4.422;2022-12-07T10:01:21;-12.10;99.90
14485;DHT22;7328;50.812;4.422;2022-12-07T10:03:52;-11.50;99.90
14485;DHT22;7328;50.812;4.422;2022-12-07T10:06:18;-11.40;99.90
14485;DHT22;7328;50.812;4.422;2022-12-07T10:08:44;-10.50;99.90
14485;DHT22;7328;50.812;4.422;2022-12-07T10:11:11;-11.20;99.90
14485;DHT22;7328;50.812;4.422;2022-12-07T10:13:45;-12.70;99.90
14485;DHT22;7328;50.812;4.422;2022-12-07T10:18:50;0.80;99.90
14485;DHT22;7328;50.812;4.422;2022-12-07T10:21:21;3.00;99.90
14485;DHT22;7328;50.812;4.422;2022-12-07T10:26:33;-12.40;99.90
14485;DHT22;7328;50.812;4.422;2022-12-07T10:29:02;-12.30;99.90
14485;DHT22;7328;50.812;4.422;2022-12-07T10:31:30;-10.70;99.90
14485;DHT22;7328;50.812;4.422;2022-12-07T10:34:00;-9.10;99.90
14485;DHT22;7328;50.812;4.422;2022-12-07T10:41:25;-8.20;99.90
14485;DHT22;7328;50.812;4.422;2022-12-07T10:43:54;-10.20;99.90
14485;DHT22;7328;50.812;4.422;2022-12-07T10:46:29;-10.90;99.90
14485;DHT22;7328;50.812;4.422;2022-12-07T10:54:48;-11.60;99.90
14485;DHT22;7328;50.812;4.422;2022-12-07T11:00:14;-10.80;99.90
14485;DHT22;7328;50.812;4.422;2022-12-07T11:03:03;-10.70;99.90
14485;DHT22;7328;50.812;4.422;2022-12-07T11:05:56;-11.90;99.90
14485;DHT22;7328;50.812;4.422;2022-12-07T11:11:09;-12.60;99.90
14485;DHT22;7328;50.812;4.422;2022-12-07T11:27:37;-10.40;99.90
14485;DHT22;7328;50.812;4.422;2022-12-07T11:38:28;-9.20;99.90
14485;DHT22;7328;50.812;4.422;2022-12-07T11:41:03;-9.70;99.90
14485;DHT22;7328;50.812;4.422;2022-12-07T11:43:54;-8.80;99.90
14485;DHT22;7328;50.812;4.422;2022-12-07T11:46:25;-8.20;99.90
14485;DHT22;7328;50.812;4.422;2022-12-07T11:49:49;-6.10;99.90
14485;DHT22;7328;50.812;4.422;2022-12-07T11:51:57;-7.40;99.90
14485;DHT22;7328;50.812;4.422;2022-12-07T11:54:32;-6.10;99.90
14485;DHT22;7328;50.812;4.422;2022-12-07T11:57:05;-6.50;99.90
14485;DHT22;7328;50.812;4.422;2022-12-07T11:59:42;-7.40;99.90
14485;DHT22;7328;50.812;4.422;2022-12-07T12:02:16;-6.70;99.90
14485;DHT22;7328;50.812;4.422;2022-12-07T12:04:55;-6.40;99.90
14485;DHT22;7328;50.812;4.422;2022-12-07T12:07:26;-5.30;99.90
14485;DHT22;7328;50.812;4.422;2022-12-07T12:10:14;-6.30;99.90
14485;DHT22;7328;50.812;4.422;2022-12-07T12:13:09;-6.30;99.90
14485;DHT22;7328;50.812;4.422;2022-12-07T12:18:35;-9.30;99.90
14485;DHT22;7328;50.812;4.422;2022-12-07T12:21:07;-10.20;99.90
14485;DHT22;7328;50.812;4.422;2022-12-07T12:24:15;-9.70;99.90
14485;DHT22;7328;50.812;4.422;2022-12-07T12:26:35;-9.40;99.90
14485;DHT22;7328;50.812;4.422;2022-12-07T12:29:18;-11.00;99.90
14485;DHT22;7328;50.812;4.422;2022-12-07T12:31:47;-9.90;99.90
14485;DHT22;7328;50.812;4.422;2022-12-07T12:34:34;-10.00;99.90
14485;DHT22;7328;50.812;4.422;2022-12-07T12:42:49;-8.40;99.90
14485;DHT22;7328;50.812;4.422;2022-12-07T12:45:28;-7.00;99.90
14485;DHT22;7328;50.812;4.422;2022-12-07T12:53:29;-6.40;99.90
14485;DHT22;7328;50.812;4.422;2022-12-07T12:56:19;-7.10;99.90
14485;DHT22;7328;50.812;4.422;2022-12-07T12:58:49;-7.60;99.90
14485;DHT22;7328;50.812;4.422;2022-12-07T13:04:01;-6.70;99.90
14485;DHT22;7328;50.812;4.422;2022-12-07T13:08:56;-7.60;99.90
14485;DHT22;7328;50.812;4.422;2022-12-07T13:11:40;-8.20;99.90
14485;DHT22;7328;50.812;4.422;2022-12-07T13:14:42;-8.20;99.90
14485;DHT22;7328;50.812;4.422;2022-12-07T13:19:59;-11.60;99.90
14485;DHT22;7328;50.812;4.422;2022-12-07T13:25:04;-12.00;99.90
14485;DHT22;7328;50.812;4.422;2022-12-07T13:27:31;-11.00;99.90
14485;DHT22;7328;50.812;4.422;2022-12-07T13:29:58;-9.20;99.90
14485;DHT22;7328;50.812;4.422;2022-12-07T13:32:26;-8.70;99.90
14485;DHT22;7328;50.812;4.422;2022-12-07T13:34:52;-8.10;99.90
14485;DHT22;7328;50.812;4.422;2022-12-07T13:39:50;-9.20;99.90
14485;DHT22;7328;50.812;4.422;2022-12-07T13:44:51;-9.40;99.90
14485;DHT22;7328;50.812;4.422;2022-12-07T13:49:55;-9.50;99.90
14485;DHT22;7328;50.812;4.422;2022-12-07T13:52:22;-7.70;99.90
14485;DHT22;7328;50.812;4.422;2022-12-07T13:57:22;-5.90;99.90
14485;DHT22;7328;50.812;4.422;2022-12-07T13:59:59;-7.80;99.90
14485;DHT22;7328;50.812;4.422;2022-12-07T14:02:29;-7.90;99.90
14485;DHT22;7328;50.812;4.422;2022-12-07T14:05:22;-8.50;99.90
14485;DHT22;7328;50.812;4.422;2022-12-07T14:08:21;-7.30;99.90
14485;DHT22;7328;50.812;4.422;2022-12-07T14:10:56;-8.10;99.90
14485;DHT22;7328;50.812;4.422;2022-12-07T14:15:52;-7.60;99.90
14485;DHT22;7328;50.812;4.422;2022-12-07T14:18:38;-7.70;99.90
14485;DHT22;7328;50.812;4.422;2022-12-07T14:23:40;-8.20;99.90
14485;DHT22;7328;50.812;4.422;2022-12-07T14:26:20;-8.60;99.90
14485;DHT22;7328;50.812;4.422;2022-12-07T14:28:48;-8.80;99.90
14485;DHT22;7328;50.812;4.422;2022-12-07T14:31:17;-7.90;99.90
14485;DHT22;7328;50.812;4.422;2022-12-07T14:33:43;-7.30;99.90
14485;DHT22;7328;50.812;4.422;2022-12-07T14:36:10;-7.40;99.90
14485;DHT22;7328;50.812;4.422;2022-12-07T14:38:36;-7.00;99.90
14485;DHT22;7328;50.812;4.422;2022-12-07T14:41:02;-5.90;99.90
14485;DHT22;7328;50.812;4.422;2022-12-07T14:43:47;-5.80;99.90
14485;DHT22;7328;50.812;4.422;2022-12-07T14:46:13;-5.60;99.90
14485;DHT22;7328;50.812;4.422;2022-12-07T14:48:39;-5.50;99.90
14485;DHT22;7328;50.812;4.422;2022-12-07T14:51:05;-5.80;99.90
14485;DHT22;7328;50.812;4.422;2022-12-07T14:53:35;-5.70;99.90
14485;DHT22;7328;50.812;4.422;2022-12-07T14:56:02;-6.60;99.90
14485;DHT22;7328;50.812;4.422;2022-12-07T14:58:30;-7.20;99.90
14485;DHT22;7328;50.812;4.422;2022-12-07T15:00:56;-6.50;99.90
14485;DHT22;7328;50.812;4.422;2022-12-07T15:03:22;-6.00;99.90
14485;DHT22;7328;50.812;4.422;2022-12-07T15:05:47;-6.10;99.90
14485;DHT22;7328;50.812;4.422;2022-12-07T15:08:14;-6.00;99.90
14485;DHT22;7328;50.812;4.422;2022-12-07T15:10:39;-5.30;99.90
14485;DHT22;7328;50.812;4.422;2022-12-07T15:13:05;-5.10;99.90
14485;DHT22;7328;50.812;4.422;2022-12-07T15:15:51;-3.80;99.90
14485;DHT22;7328;50.812;4.422;2022-12-07T15:18:18;-3.70;99.90
14485;DHT22;7328;50.812;4.422;2022-12-07T15:20:45;-3.90;99.90
14485;DHT22;7328;50.812;4.422;2022-12-07T15:23:11;-4.50;99.90
14485;DHT22;7328;50.812;4.422;2022-12-07T15:25:44;-4.90;99.90
14485;DHT22;7328;50.812;4.422;2022-12-07T15:28:10;-5.10;99.90
14485;DHT22;7328;50.812;4.422;2022-12-07T15:30:37;-5.60;99.90
14485;DHT22;7328;50.812;4.422;2022-12-07T15:33:03;-5.30;99.90
14485;DHT22;7328;50.812;4.422;2022-12-07T15:35:29;-5.00;99.90
14485;DHT22;7328;50.812;4.422;2022-12-07T15:37:55;-4.00;99.90
14485;DHT22;7328;50.812;4.422;2022-12-07T15:40:20;-4.50;99.90
14485;DHT22;7328;50.812;4.422;2022-12-07T15:42:46;-4.30;99.90
14485;DHT22;7328;50.812;4.422;2022-12-07T15:45:12;-4.40;99.90
14485;DHT22;7328;50.812;4.422;2022-12-07T15:47:43;-4.50;99.90
14485;DHT22;7328;50.812;4.422;2022-12-07T15:50:12;-4.20;99.90
14485;DHT22;7328;50.812;4.422;2022-12-07T15:52:39;-4.10;99.90
14485;DHT22;7328;50.812;4.422;2022-12-07T15:55:05;-4.20;99.90
14485;DHT22;7328;50.812;4.422;2022-12-07T15:57:32;-5.00;99.90
14485;DHT22;7328;50.812;4.422;2022-12-07T15:59:58;-5.40;99.90
14485;DHT22;7328;50.812;4.422;2022-12-07T16:02:24;-3.80;99.90
14485;DHT22;7328;50.812;4.422;2022-12-07T16:04:51;-4.60;99.90
14485;DHT22;7328;50.812;4.422;2022-12-07T16:07:17;-5.40;99.90
14485;DHT22;7328;50.812;4.422;2022-12-07T16:09:45;-5.20;99.90
14485;DHT22;7328;50.812;4.422;2022-12-07T16:12:12;-4.30;99.90
14485;DHT22;7328;50.812;4.422;2022-12-07T16:14:39;-5.10;99.90
14485;DHT22;7328;50.812;4.422;2022-12-07T16:17:06;-5.70;99.90
14485;DHT22;7328;50.812;4.422;2022-12-07T16:19:32;-5.80;99.90
14485;DHT22;7328;50.812;4.422;2022-12-07T16:21:58;-5.70;99.90
14485;DHT22;7328;50.812;4.422;2022-12-07T16:24:25;-5.80;99.90
14485;DHT22;7328;50.812;4.422;2022-12-07T16:26:51;-5.50;99.90
14485;DHT22;7328;50.812;4.422;2022-12-07T16:29:21;-6.00;99.90
14485;DHT22;7328;50.812;4.422;2022-12-07T16:31:48;-5.60;99.90
14485;DHT22;7328;50.812;4.422;2022-12-07T16:34:15;-6.20;99.90
14485;DHT22;7328;50.812;4.422;2022-12-07T16:36:41;-4.00;99.90
14485;DHT22;7328;50.812;4.422;2022-12-07T16:39:06;-3.90;99.90
14485;DHT22;7328;50.812;4.422;2022-12-07T16:41:32;-5.00;99.90
14485;DHT22;7328;50.812;4.422;2022-12-07T16:44:12;-5.50;99.90
14485;DHT22;7328;50.812;4.422;2022-12-07T16:46:39;-5.80;99.90
14485;DHT22;7328;50.812;4.422;2022-12-07T16:49:04;-3.30;99.90
14485;DHT22;7328;50.812;4.422;2022-12-07T16:51:31;-5.50;99.90
14485;DHT22;7328;50.812;4.422;2022-12-07T16:53:57;-5.30;99.90
14485;DHT22;7328;50.812;4.422;2022-12-07T16:56:23;-5.70;99.90
14485;DHT22;7328;50.812;4.422;2022-12-07T16:58:49;-3.80;99.90
14485;DHT22;7328;50.812;4.422;2022-12-07T17:01:22;-4.30;99.90
14485;DHT22;7328;50.812;4.422;2022-12-07T17:03:53;-4.70;99.90
14485;DHT22;7328;50.812;4.422;2022-12-07T17:06:26;-4.40;99.90
14485;DHT22;7328;50.812;4.422;2022-12-07T17:08:54;-4.50;99.90
14485;DHT22;7328;50.812;4.422;2022-12-07T17:11:23;-4.70;99.90
14485;DHT22;7328;50.812;4.422;2022-12-07T17:13:50;-4.80;99.90
14485;DHT22;7328;50.812;4.422;2022-12-07T17:16:36;-4.40;99.90
14485;DHT22;7328;50.812;4.422;2022-12-07T17:19:11;-2.80;99.90
14485;DHT22;7328;50.812;4.422;2022-12-07T17:21:37;-4.10;99.90
14485;DHT22;7328;50.812;4.422;2022-12-07T17:24:07;-4.30;99.90
14485;DHT22;7328;50.812;4.422;2022-12-07T17:26:33;-4.70;99.90
14485;DHT22;7328;50.812;4.422;2022-12-07T17:28:59;-4.60;99.90
14485;DHT22;7328;50.812;4.422;2022-12-07T17:31:25;-5.10;99.90
14485;DHT22;7328;50.812;4.422;2022-12-07T17:33:51;-4.80;99.90
14485;DHT22;7328;50.812;4.422;2022-12-07T17:36:26;-3.70;99.90
14485;DHT22;7328;50.812;4.422;2022-12-07T17:38:52;-4.50;99.90
14485;DHT22;7328;50.812;4.422;2022-12-07T17:41:21;-4.60;99.90
14485;DHT22;7328;50.812;4.422;2022-12-07T17:44:08;-5.00;99.90
14485;DHT22;7328;50.812;4.422;2022-12-07T17:46:35;-4.50;99.90